Time;durP1;ratioP1;P1;durP2;ratioP2;P2;SDS_P1;SDS_P2;PMS_P1;PMS_P2;Temp;Humidity;BMP_temperature;BMP_pressure;BME280_temperature;BME280_humidity;BME280_pressure;Samples;Min_cycle;Max_cycle;Signal;HPM_P1;HPM_P2
2021/08/04 00:01:52;;;;;;;3.92;1.67;;;19.50;79.60;;;;;;5054328;28;20482;-65
2021/08/04 00:04:18;;;;;;;4.88;1.60;;;19.50;79.60;;;;;;5054277;28;20033;-66
2021/08/04 00:06:44;;;;;;;3.10;1.67;;;19.50;79.60;;;;;;5054678;28;20021;-65
2021/08/04 00:09:09;;;;;;;5.28;1.65;;;19.40;79.60;;;;;;5054578;28;20064;-65
2021/08/04 00:11:35;;;;;;;5.35;1.90;;;19.40;79.60;;;;;;5053379;28;20021;-64
2021/08/04 00:14:01;;;;;;;2.35;1.50;;;19.40;79.70;;;;;;5054179;28;20060;-67
2021/08/04 00:16:26;;;;;;;2.95;1.52;;;19.40;79.70;;;;;;5054380;28;20541;-67
2021/08/04 00:18:52;;;;;;;4.90;1.90;;;19.40;79.70;;;;;;5052953;28;20090;-67
2021/08/04 00:21:17;;;;;;;4.07;1.70;;;19.40;79.80;;;;;;5054308;28;20032;-64
2021/08/04 00:23:43;;;;;;;3.95;1.88;;;19.40;79.80;;;;;;5053959;28;20033;-68
2021/08/04 00:26:09;;;;;;;2.95;1.50;;;19.40;79.80;;;;;;5053970;28;20127;-64
2021/08/04 00:28:34;;;;;;;3.85;1.50;;;19.40;79.80;;;;;;5052883;28;20097;-65
2021/08/04 00:30:59;;;;;;;3.50;1.60;;;19.40;79.80;;;;;;5046112;28;20483;-64
2021/08/04 00:33:25;;;;;;;3.75;1.60;;;19.40;79.70;;;;;;5052379;28;20017;-65
2021/08/04 00:35:51;;;;;;;5.03;1.70;;;19.40;79.80;;;;;;5053186;28;20056;-65
2021/08/04 00:38:16;;;;;;;3.22;1.70;;;19.40;79.90;;;;;;5069683;28;20037;-64
2021/08/04 00:40:43;;;;;;;2.83;1.48;;;19.40;79.80;;;;;;5053928;28;20033;-64
2021/08/04 00:43:09;;;;;;;4.28;1.70;;;19.40;79.80;;;;;;5052531;28;20040;-65
2021/08/04 00:45:35;;;;;;;3.80;1.42;;;19.40;79.70;;;;;;5053352;28;20033;-67
2021/08/04 00:48:01;;;;;;;3.38;1.50;;;19.40;79.80;;;;;;5053781;28;20032;-67
2021/08/04 00:50:28;;;;;;;4.07;1.65;;;19.40;79.80;;;;;;5053162;28;20029;-67
2021/08/04 00:52:54;;;;;;;4.70;1.75;;;19.40;79.90;;;;;;5053204;28;20032;-67
2021/08/04 00:55:19;;;;;;;2.85;1.60;;;19.40;79.80;;;;;;5051956;28;20055;-66
2021/08/04 00:57:45;;;;;;;3.72;1.50;;;19.40;79.80;;;;;;5043405;28;20457;-66
2021/08/04 01:00:11;;;;;;;3.67;1.63;;;19.40;79.80;;;;;;5039515;28;20040;-67
2021/08/04 01:02:44;;;;;;;3.13;1.77;;;19.40;79.90;;;;;;5052795;28;20059;-67
2021/08/04 01:05:20;;;;;;;4.45;1.73;;;19.40;79.90;;;;;;5048752;28;20033;-66
2021/08/04 01:07:56;;;;;;;3.78;1.55;;;19.40;80.40;;;;;;5053600;28;20029;-66
2021/08/04 01:10:43;;;;;;;2.90;1.55;;;19.40;79.90;;;;;;5053484;28;20032;-67
2021/08/04 01:13:46;;;;;;;3.60;1.67;;;19.30;79.90;;;;;;5053208;28;20048;-67
2021/08/04 01:16:17;;;;;;;3.13;1.50;;;19.30;79.90;;;;;;5050561;28;20076;-66
2021/08/04 01:19:09;;;;;;;3.15;1.70;;;19.30;79.90;;;;;;5048106;28;20095;-66
2021/08/04 01:21:44;;;;;;;4.80;1.85;;;19.30;79.90;;;;;;5050227;28;20383;-67
2021/08/04 01:24:27;;;;;;;4.93;1.77;;;19.30;80.00;;;;;;5053049;28;20437;-67
2021/08/04 01:26:55;;;;;;;5.43;2.08;;;19.30;80.00;;;;;;5033349;28;20541;-67
2021/08/04 01:29:24;;;;;;;3.83;1.45;;;19.30;80.00;;;;;;5046800;28;20040;-68
2021/08/04 01:31:53;;;;;;;3.00;1.52;;;19.30;80.00;;;;;;5051283;28;20033;-66
2021/08/04 01:34:20;;;;;;;4.85;2.00;;;19.30;80.10;;;;;;5052034;28;20150;-67
2021/08/04 01:36:46;;;;;;;4.20;1.77;;;19.30;80.20;;;;;;5051131;28;20028;-67
2021/08/04 01:39:14;;;;;;;2.63;1.50;;;19.30;80.20;;;;;;5045178;28;20083;-68
2021/08/04 01:41:41;;;;;;;3.92;1.55;;;19.30;80.20;;;;;;5052661;28;20025;-67
2021/08/04 01:44:08;;;;;;;4.63;1.60;;;19.30;80.20;;;;;;5052542;28;20386;-67
2021/08/04 01:46:35;;;;;;;3.72;1.67;;;19.30;80.20;;;;;;5051857;28;20103;-67
2021/08/04 01:49:03;;;;;;;2.83;1.70;;;19.30;80.20;;;;;;5050651;28;20401;-67
2021/08/04 01:51:29;;;;;;;3.58;1.60;;;19.30;80.20;;;;;;5051170;28;20494;-67
2021/08/04 01:53:56;;;;;;;5.15;1.77;;;19.30;80.30;;;;;;5052592;28;20044;-67
2021/08/04 01:56:22;;;;;;;3.28;1.65;;;19.30;80.30;;;;;;5052422;28;20021;-67
2021/08/04 01:58:47;;;;;;;5.65;1.85;;;19.30;80.30;;;;;;5051096;28;20032;-67
2021/08/04 02:01:13;;;;;;;3.03;1.60;;;19.30;80.30;;;;;;5050570;28;20078;-67
2021/08/04 02:03:39;;;;;;;3.58;1.58;;;19.30;80.40;;;;;;5052308;28;20025;-67
2021/08/04 02:06:19;;;;;;;2.33;1.38;;;19.20;80.40;;;;;;5052119;28;20074;-67
2021/08/04 02:08:58;;;;;;;4.13;1.50;;;19.30;80.40;;;;;;5052161;28;20025;-67
2021/08/04 02:11:32;;;;;;;3.63;1.58;;;19.20;80.40;;;;;;5050982;28;20501;-67
2021/08/04 02:14:00;;;;;;;3.33;1.70;;;19.20;80.40;;;;;;5052269;28;20029;-67
2021/08/04 02:16:31;;;;;;;2.58;1.42;;;19.20;80.40;;;;;;5050616;28;20025;-67
2021/08/04 02:19:10;;;;;;;;;;;19.20;80.40;;;;;;5052645;28;20032;-67
2021/08/04 02:21:39;;;;;;;3.72;1.40;;;19.20;80.40;;;;;;5052149;28;19912;-67
2021/08/04 02:24:04;;;;;;;3.10;1.40;;;19.20;80.50;;;;;;5050525;28;20036;-67
2021/08/04 02:26:32;;;;;;;2.55;1.40;;;19.20;80.50;;;;;;5050398;28;20032;-68
2021/08/04 02:28:59;;;;;;;2.80;1.35;;;19.20;80.50;;;;;;5048893;28;20119;-67
2021/08/04 02:31:25;;;;;;;2.80;1.50;;;19.20;80.50;;;;;;5051783;28;20059;-67
2021/08/04 02:33:51;;;;;;;3.00;1.58;;;19.20;80.50;;;;;;5051997;28;20067;-66
2021/08/04 02:36:17;;;;;;;2.45;1.40;;;19.20;80.60;;;;;;5050472;28;20025;-67
2021/08/04 02:38:44;;;;;;;3.33;1.63;;;19.20;80.60;;;;;;5049384;28;20094;-67
2021/08/04 02:41:09;;;;;;;3.13;1.40;;;19.20;80.60;;;;;;5050428;28;20025;-67
2021/08/04 02:43:35;;;;;;;3.67;1.77;;;19.20;80.60;;;;;;5049941;28;20028;-67
2021/08/04 02:46:01;;;;;;;3.58;1.60;;;19.20;80.60;;;;;;5051202;28;20028;-67
2021/08/04 02:48:28;;;;;;;3.05;1.70;;;19.20;80.60;;;;;;5051458;28;20479;-67
2021/08/04 02:50:58;;;;;;;2.45;1.30;;;19.20;80.60;;;;;;5051632;28;20025;-67
2021/08/04 02:53:25;;;;;;;3.20;1.48;;;19.20;80.60;;;;;;5051115;28;20027;-66
2021/08/04 02:55:51;;;;;;;2.78;1.45;;;19.20;80.60;;;;;;5049870;28;20537;-66
2021/08/04 02:58:18;;;;;;;3.55;1.48;;;19.20;80.60;;;;;;5043224;28;20029;-67
2021/08/04 03:00:43;;;;;;;3.20;1.52;;;19.20;80.80;;;;;;5049837;28;20029;-67
2021/08/04 03:03:09;;;;;;;3.63;1.63;;;19.20;80.70;;;;;;5051159;28;20047;-66
2021/08/04 03:05:34;;;;;;;3.28;1.55;;;19.20;80.80;;;;;;5051195;28;20046;-66
2021/08/04 03:08:00;;;;;;;2.63;1.40;;;19.20;80.80;;;;;;5049875;28;20058;-66
2021/08/04 03:10:25;;;;;;;2.78;1.50;;;19.20;80.90;;;;;;5051609;28;20028;-67
2021/08/04 03:12:52;;;;;;;3.22;1.50;;;19.20;80.90;;;;;;5051118;28;20028;-66
2021/08/04 03:15:18;;;;;;;3.60;1.40;;;19.20;80.90;;;;;;5051285;28;20502;-66
2021/08/04 03:17:43;;;;;;;3.15;1.48;;;19.20;80.90;;;;;;5051412;28;20032;-67
2021/08/04 03:20:10;;;;;;;3.15;1.50;;;19.20;80.90;;;;;;5051318;28;20029;-66
2021/08/04 03:22:35;;;;;;;3.03;1.60;;;19.10;80.80;;;;;;5050652;28;20021;-66
2021/08/04 03:25:01;;;;;;;2.88;1.42;;;19.20;80.90;;;;;;5050389;28;20029;-66
2021/08/04 03:27:27;;;;;;;3.15;1.40;;;19.20;80.90;;;;;;5051140;28;20071;-66
2021/08/04 03:29:53;;;;;;;3.67;1.73;;;19.20;80.90;;;;;;5049795;28;20067;-67
2021/08/04 03:32:18;;;;;;;2.95;1.48;;;19.10;80.80;;;;;;5050829;28;20025;-66
2021/08/04 03:34:44;;;;;;;3.47;1.70;;;19.10;80.90;;;;;;5049840;28;20017;-67
2021/08/04 03:37:09;;;;;;;1.75;1.20;;;19.10;80.90;;;;;;5051310;28;20032;-67
2021/08/04 03:39:35;;;;;;;4.72;1.50;;;19.10;80.90;;;;;;5050103;28;20017;-67
2021/08/04 03:42:00;;;;;;;3.80;1.60;;;19.10;80.90;;;;;;5050891;28;20036;-67
2021/08/04 03:44:26;;;;;;;3.00;1.58;;;19.10;80.90;;;;;;5050535;28;20052;-66
2021/08/04 03:46:51;;;;;;;3.22;1.40;;;19.10;80.90;;;;;;5042853;28;20041;-66
2021/08/04 03:49:17;;;;;;;2.95;1.40;;;19.10;80.90;;;;;;5039880;28;20058;-68
2021/08/04 03:51:42;;;;;;;2.63;1.50;;;19.10;80.90;;;;;;5048966;28;20534;-67
2021/08/04 03:54:08;;;;;;;4.50;1.73;;;19.10;80.90;;;;;;5049672;28;20025;-66
2021/08/04 03:56:34;;;;;;;4.65;1.45;;;19.10;80.80;;;;;;5042603;28;20113;-66
2021/08/04 03:59:00;;;;;;;2.63;1.42;;;19.10;80.80;;;;;;5037159;28;20059;-66
2021/08/04 04:01:26;;;;;;;2.75;1.45;;;19.10;80.80;;;;;;5049539;28;20053;-67
2021/08/04 04:03:51;;;;;;;2.38;1.38;;;19.10;80.80;;;;;;5050960;28;20545;-67
2021/08/04 04:06:17;;;;;;;2.55;1.40;;;19.10;80.90;;;;;;5050276;28;20031;-67
2021/08/04 04:08:43;;;;;;;2.60;1.35;;;19.10;81.00;;;;;;5041449;28;20031;-66
2021/08/04 04:11:10;;;;;;;2.42;1.33;;;19.10;81.00;;;;;;5030990;28;20045;-67
2021/08/04 04:13:35;;;;;;;2.80;1.48;;;19.10;81.10;;;;;;5037265;28;20040;-66
2021/08/04 04:16:01;;;;;;;4.22;1.70;;;19.10;81.20;;;;;;5052932;28;20021;-66
2021/08/04 04:18:27;;;;;;;3.42;1.30;;;19.10;81.30;;;;;;5054157;28;20040;-67
2021/08/04 04:20:52;;;;;;;2.67;1.23;;;19.10;81.30;;;;;;5054161;28;20025;-66
2021/08/04 04:23:18;;;;;;;2.85;1.50;;;19.10;81.30;;;;;;5053899;28;20033;-66
2021/08/04 04:25:43;;;;;;;2.60;1.40;;;19.10;81.40;;;;;;5054146;28;20509;-66
2021/08/04 04:28:09;;;;;;;4.78;1.60;;;19.10;81.40;;;;;;5062114;28;20106;-66
2021/08/04 04:30:34;;;;;;;6.28;1.50;;;19.10;81.50;;;;;;5052875;28;20052;-67
2021/08/04 04:33:00;;;;;;;2.85;1.50;;;19.10;81.50;;;;;;5053068;28;20104;-66
2021/08/04 04:35:25;;;;;;;2.78;1.40;;;19.10;81.60;;;;;;5034108;28;20021;-66
2021/08/04 04:37:51;;;;;;;5.15;1.40;;;19.10;81.60;;;;;;5039212;28;20044;-66
2021/08/04 04:40:16;;;;;;;4.05;1.50;;;19.10;81.60;;;;;;5053957;28;20033;-67
2021/08/04 04:42:42;;;;;;;2.80;1.42;;;19.10;81.70;;;;;;5052669;28;20509;-67
2021/08/04 04:45:08;;;;;;;2.00;1.35;;;19.10;81.70;;;;;;5068970;28;20441;-67
2021/08/04 04:47:34;;;;;;;2.83;1.35;;;19.10;81.80;;;;;;5052222;28;20028;-67
2021/08/04 04:50:00;;;;;;;2.65;1.30;;;19.10;81.80;;;;;;5052177;28;20114;-67
2021/08/04 04:52:25;;;;;;;2.67;1.30;;;19.10;81.80;;;;;;5053656;28;20052;-67
2021/08/04 04:54:51;;;;;;;2.53;1.35;;;19.10;81.80;;;;;;5039441;28;20040;-68
2021/08/04 04:57:16;;;;;;;3.33;1.40;;;19.10;81.90;;;;;;5037330;28;20021;-67
2021/08/04 04:59:42;;;;;;;2.40;1.50;;;19.10;81.90;;;;;;5047625;28;20071;-68
2021/08/04 05:02:07;;;;;;;3.30;1.40;;;19.10;81.90;;;;;;5048381;28;20486;-68
2021/08/04 05:04:33;;;;;;;4.68;1.88;;;19.10;81.90;;;;;;5045468;28;20198;-65
2021/08/04 05:06:58;;;;;;;7.28;2.58;;;19.10;82.00;;;;;;5030949;28;20025;-66
2021/08/04 05:09:24;;;;;;;6.47;2.60;;;19.10;82.20;;;;;;5033204;28;20040;-67
2021/08/04 05:11:49;;;;;;;8.30;2.30;;;19.20;82.50;;;;;;5037468;28;20029;-69
2021/08/04 05:14:15;;;;;;;10.60;2.72;;;19.20;82.20;;;;;;5042979;28;20057;-69
2021/08/04 05:16:40;;;;;;;8.45;2.40;;;19.20;82.70;;;;;;5045711;28;20413;-68
2021/08/04 05:19:06;;;;;;;11.50;2.30;;;19.20;82.60;;;;;;5045884;28;20561;-71
2021/08/04 05:21:31;;;;;;;8.88;2.25;;;19.20;82.60;;;;;;5045798;28;20032;-70
2021/08/04 05:23:57;;;;;;;8.73;2.78;;;19.20;82.80;;;;;;5045453;28;20148;-73
2021/08/04 05:26:23;;;;;;;7.65;2.10;;;19.20;82.90;;;;;;5045934;28;20486;-71
2021/08/04 05:28:51;;;;;;;7.82;2.40;;;19.20;82.80;;;;;;5047544;28;20081;-71
2021/08/04 05:31:17;;;;;;;9.20;2.70;;;19.20;82.70;;;;;;5046291;28;20083;-72
2021/08/04 05:33:42;;;;;;;6.63;2.22;;;19.20;82.50;;;;;;5029902;28;20065;-71
2021/08/04 05:36:08;;;;;;;8.98;2.40;;;19.20;82.30;;;;;;5025840;28;20253;-68
2021/08/04 05:38:33;;;;;;;8.73;2.10;;;19.20;82.10;;;;;;5026807;28;20045;-68
2021/08/04 05:40:59;;;;;;;6.40;2.45;;;19.20;82.30;;;;;;5027035;28;20472;-68
2021/08/04 05:43:24;;;;;;;7.50;1.98;;;19.20;82.50;;;;;;5026316;28;20042;-69
2021/08/04 05:45:50;;;;;;;6.05;2.45;;;19.20;82.80;;;;;;5025780;28;20083;-75
2021/08/04 05:48:15;;;;;;;10.73;2.55;;;19.30;83.00;;;;;;5036687;28;20111;-67
2021/08/04 05:50:41;;;;;;;7.45;2.25;;;19.30;82.50;;;;;;5045365;28;20021;-69
2021/08/04 05:53:07;;;;;;;11.55;2.33;;;19.30;82.30;;;;;;5037459;28;20247;-67
2021/08/04 05:55:33;;;;;;;7.45;2.65;;;19.30;81.90;;;;;;5037898;28;20053;-67
2021/08/04 05:57:59;;;;;;;5.50;2.40;;;19.30;81.90;;;;;;5033320;28;20112;-69
2021/08/04 06:00:24;;;;;;;10.05;2.30;;;19.30;82.20;;;;;;5040502;28;20548;-68
2021/08/04 06:02:50;;;;;;;9.50;2.78;;;19.30;82.40;;;;;;5039187;28;20116;-69
2021/08/04 06:05:16;;;;;;;6.60;2.60;;;19.40;82.40;;;;;;5035359;28;20052;-68
2021/08/04 06:07:42;;;;;;;8.63;2.20;;;19.30;82.40;;;;;;5026272;28;20128;-71
2021/08/04 06:10:08;;;;;;;10.50;2.78;;;19.40;82.40;;;;;;5026340;28;20434;-66
2021/08/04 06:12:33;;;;;;;6.65;2.25;;;19.40;81.80;;;;;;5024865;28;20030;-68
2021/08/04 06:14:59;;;;;;;8.15;2.20;;;19.40;82.10;;;;;;5026154;28;20091;-68
2021/08/04 06:17:24;;;;;;;4.70;2.03;;;19.40;82.40;;;;;;5031599;28;20013;-66
2021/08/04 06:19:50;;;;;;;5.15;2.20;;;19.40;82.50;;;;;;5025850;28;20394;-67
2021/08/04 06:22:15;;;;;;;5.15;2.20;;;19.40;82.40;;;;;;5029225;28;20061;-67
2021/08/04 06:24:41;;;;;;;7.18;1.90;;;19.40;82.40;;;;;;5040644;28;20033;-65
2021/08/04 06:27:06;;;;;;;5.07;1.73;;;19.40;82.40;;;;;;5040872;28;20045;-67
2021/08/04 06:29:32;;;;;;;9.52;3.08;;;19.40;82.50;;;;;;5044970;28;20025;-67
2021/08/04 06:31:57;;;;;;;8.63;2.63;;;19.40;82.40;;;;;;5044313;28;20508;-67
2021/08/04 06:34:23;;;;;;;7.20;2.53;;;19.40;82.10;;;;;;5044779;28;20029;-68
2021/08/04 06:36:48;;;;;;;7.10;2.40;;;19.50;82.10;;;;;;5045646;28;20029;-68
2021/08/04 06:39:14;;;;;;;6.18;2.10;;;19.40;82.10;;;;;;5046175;28;20705;-66
2021/08/04 06:41:40;;;;;;;8.95;2.63;;;19.50;82.10;;;;;;5045257;28;20478;-66
2021/08/04 06:44:05;;;;;;;4.78;2.40;;;19.40;82.00;;;;;;5044408;28;20036;-67
2021/08/04 06:46:36;;;;;;;5.55;2.42;;;19.50;81.90;;;;;;5036151;28;20108;-66
2021/08/04 06:49:02;;;;;;;4.90;2.05;;;19.50;81.90;;;;;;5032318;28;20037;-66
2021/08/04 06:51:28;;;;;;;4.85;2.17;;;19.50;81.90;;;;;;5035248;28;20082;-68
2021/08/04 06:53:55;;;;;;;4.68;2.28;;;19.50;81.90;;;;;;5050362;28;20021;-65
2021/08/04 06:56:20;;;;;;;6.00;2.40;;;19.60;81.50;;;;;;5033759;28;20029;-69
2021/08/04 06:58:46;;;;;;;5.95;2.53;;;19.70;81.10;;;;;;5035185;28;20082;-68
2021/08/04 07:01:11;;;;;;;4.63;2.60;;;19.70;80.90;;;;;;5037410;28;20033;-69
2021/08/04 07:03:38;;;;;;;7.75;2.10;;;19.70;80.70;;;;;;5034538;28;20063;-68
2021/08/04 07:06:06;;;;;;;7.30;2.50;;;19.70;80.60;;;;;;5039841;28;20032;-69
2021/08/04 07:08:31;;;;;;;5.70;2.45;;;19.70;81.20;;;;;;5044619;28;20056;-71
2021/08/04 07:10:57;;;;;;;5.35;2.00;;;19.80;81.20;;;;;;5044564;28;20053;-69
2021/08/04 07:13:23;;;;;;;5.78;2.25;;;19.70;80.90;;;;;;5044084;28;20028;-69
2021/08/04 07:15:49;;;;;;;6.18;2.10;;;19.80;80.10;;;;;;5045108;28;20049;-68
2021/08/04 07:18:15;;;;;;;3.85;1.80;;;19.80;79.60;;;;;;5043659;28;20430;-69
2021/08/04 07:20:40;;;;;;;4.82;1.95;;;19.80;79.20;;;;;;5043711;28;20211;-68
2021/08/04 07:23:06;;;;;;;3.95;1.95;;;19.80;79.00;;;;;;5044875;28;20078;-70
2021/08/04 07:25:32;;;;;;;4.60;2.00;;;19.80;79.00;;;;;;5031213;28;20441;-70
2021/08/04 07:27:57;;;;;;;7.40;2.00;;;19.80;78.90;;;;;;5023890;28;20242;-69
2021/08/04 07:30:24;;;;;;;4.38;2.00;;;19.80;78.80;;;;;;5032080;28;20033;-68
2021/08/04 07:32:50;;;;;;;4.90;1.90;;;19.80;78.60;;;;;;5038799;28;20025;-68
2021/08/04 07:35:15;;;;;;;5.65;1.90;;;19.90;78.40;;;;;;5041779;28;20025;-68
2021/08/04 07:37:41;;;;;;;7.15;2.15;;;19.90;78.40;;;;;;5032901;28;20278;-68
2021/08/04 07:40:07;;;;;;;9.25;2.22;;;19.90;78.30;;;;;;5035121;28;20048;-68
2021/08/04 07:42:33;;;;;;;6.80;1.85;;;19.90;78.60;;;;;;5044773;28;20055;-66
2021/08/04 07:44:59;;;;;;;6.55;2.25;;;20.00;78.30;;;;;;5027777;28;20042;-68
2021/08/04 07:47:25;;;;;;;5.57;1.65;;;20.00;78.10;;;;;;5028021;28;20083;-68
2021/08/04 07:49:51;;;;;;;8.63;2.08;;;20.00;78.00;;;;;;5036002;28;20033;-68
2021/08/04 07:52:17;;;;;;;16.52;2.65;;;20.00;77.80;;;;;;5046744;28;20036;-70
2021/08/04 07:54:42;;;;;;;12.43;2.80;;;20.00;77.90;;;;;;5049690;28;20096;-68
2021/08/04 07:57:08;;;;;;;5.68;1.88;;;20.00;78.20;;;;;;5071809;28;20520;-68
2021/08/04 07:59:33;;;;;;;8.38;2.10;;;20.00;77.80;;;;;;5053729;28;20025;-68
2021/08/04 08:01:59;;;;;;;8.02;1.70;;;20.10;77.60;;;;;;5054733;28;20027;-68
2021/08/04 08:04:24;;;;;;;7.00;2.10;;;20.10;77.20;;;;;;5053405;28;20040;-68
2021/08/04 08:06:50;;;;;;;7.07;2.15;;;20.20;77.00;;;;;;5054852;28;20029;-68
2021/08/04 08:09:21;;;;;;;7.07;2.15;;;20.20;76.80;;;;;;5054890;28;20028;-68
2021/08/04 08:11:47;;;;;;;6.78;1.80;;;20.20;76.60;;;;;;5053518;28;20025;-68
2021/08/04 08:14:13;;;;;;;6.95;2.05;;;20.20;76.50;;;;;;5053458;28;20052;-68
2021/08/04 08:16:38;;;;;;;5.47;2.00;;;20.20;76.30;;;;;;5053195;28;20025;-68
2021/08/04 08:19:04;;;;;;;11.45;2.47;;;20.30;76.30;;;;;;5053369;28;20024;-69
2021/08/04 08:21:29;;;;;;;5.55;2.30;;;20.30;76.20;;;;;;5053257;28;20052;-69
2021/08/04 08:23:55;;;;;;;4.25;1.77;;;20.30;76.00;;;;;;5054525;28;20363;-68
2021/08/04 08:26:24;;;;;;;6.15;1.67;;;20.40;75.80;;;;;;5054179;28;20029;-68
2021/08/04 08:28:50;;;;;;;7.85;2.25;;;20.50;75.40;;;;;;5053130;28;20029;-68
2021/08/04 08:31:16;;;;;;;7.88;2.00;;;20.50;75.00;;;;;;5054243;28;20020;-68
2021/08/04 08:33:42;;;;;;;5.07;1.95;;;20.60;74.90;;;;;;5054347;28;20021;-68
2021/08/04 08:36:07;;;;;;;4.43;1.60;;;20.70;74.40;;;;;;5054115;28;20429;-68
2021/08/04 08:38:33;;;;;;;4.22;1.75;;;20.70;73.90;;;;;;5053009;28;20065;-68
2021/08/04 08:40:59;;;;;;;6.93;1.90;;;20.90;73.50;;;;;;5054328;28;20029;-68
2021/08/04 08:43:25;;;;;;;4.50;1.50;;;20.90;73.10;;;;;;5054158;28;20025;-68
2021/08/04 08:45:52;;;;;;;6.30;1.73;;;20.90;73.10;;;;;;5053716;28;20090;-68
2021/08/04 08:48:18;;;;;;;6.60;1.92;;;20.90;73.20;;;;;;5069538;28;20573;-68
2021/08/04 08:50:46;;;;;;;5.72;1.70;;;20.90;73.10;;;;;;5069327;28;20053;-67
2021/08/04 08:53:11;;;;;;;4.13;1.70;;;20.90;73.00;;;;;;5053497;28;20052;-68
2021/08/04 08:55:38;;;;;;;4.97;2.05;;;21.00;72.60;;;;;;5053664;28;20033;-68
2021/08/04 08:58:03;;;;;;;5.75;1.77;;;21.00;72.50;;;;;;5052102;28;20071;-68
2021/08/04 09:00:29;;;;;;;7.05;1.60;;;21.00;72.40;;;;;;5053852;28;20059;-68
2021/08/04 09:02:55;;;;;;;4.03;1.77;;;21.10;72.30;;;;;;5052522;28;20047;-68
2021/08/04 09:05:21;;;;;;;2.70;1.30;;;21.20;71.80;;;;;;5053476;28;20028;-68
2021/08/04 09:07:47;;;;;;;2.63;1.40;;;21.30;71.30;;;;;;5053763;28;20021;-69
2021/08/04 09:10:36;;;;;;;4.15;1.80;;;21.40;71.10;;;;;;5053751;28;20477;-68
2021/08/04 09:13:05;;;;;;;3.83;1.50;;;21.40;70.80;;;;;;5053631;28;20028;-68
2021/08/04 09:15:41;;;;;;;4.35;1.80;;;21.50;70.80;;;;;;5052048;28;20029;-68
2021/08/04 09:18:15;;;;;;;7.68;1.80;;;21.50;70.40;;;;;;5053622;28;20516;-68
2021/08/04 09:20:43;;;;;;;5.88;1.77;;;21.50;70.30;;;;;;5053540;28;20028;-68
2021/08/04 09:23:15;;;;;;;3.67;1.50;;;21.60;70.10;;;;;;5053427;28;20482;-68
2021/08/04 09:25:59;;;;;;;3.15;1.50;;;21.60;70.40;;;;;;5053154;28;20452;-68
2021/08/04 09:28:24;;;;;;;7.32;1.70;;;21.60;69.70;;;;;;5053410;28;20056;-68
2021/08/04 09:31:00;;;;;;;2.55;1.40;;;21.70;69.70;;;;;;5053263;28;20021;-67
2021/08/04 09:33:26;;;;;;;3.70;1.48;;;21.60;69.60;;;;;;5053174;28;20053;-67
2021/08/04 09:35:56;;;;;;;4.50;1.60;;;21.50;69.80;;;;;;5052911;28;20052;-68
2021/08/04 09:38:22;;;;;;;5.47;1.50;;;21.50;70.10;;;;;;5053166;28;20083;-68
2021/08/04 09:41:17;;;;;;;2.55;1.30;;;21.40;70.10;;;;;;5053109;28;20032;-68
2021/08/04 09:43:48;;;;;;;4.05;1.70;;;21.50;70.10;;;;;;5052865;28;20037;-67
2021/08/04 09:46:21;;;;;;;3.05;1.30;;;21.70;69.60;;;;;;5052741;28;20021;-68
2021/08/04 09:48:47;;;;;;;3.75;1.40;;;21.70;69.10;;;;;;5051680;28;20025;-68
2021/08/04 09:51:17;;;;;;;2.75;1.30;;;21.70;68.90;;;;;;5052900;28;20044;-68
2021/08/04 09:53:46;;;;;;;3.60;1.27;;;21.70;69.00;;;;;;5052265;28;20024;-68
2021/08/04 09:56:13;;;;;;;2.03;1.30;;;21.80;68.90;;;;;;5051275;28;20036;-68
2021/08/04 09:58:47;;;;;;;5.53;1.52;;;21.90;68.60;;;;;;5052760;28;20087;-68
2021/08/04 10:01:17;;;;;;;3.35;1.40;;;22.00;68.40;;;;;;5052722;28;20051;-68
2021/08/04 10:04:04;;;;;;;4.10;1.50;;;22.00;68.20;;;;;;5052720;28;20056;-67
2021/08/04 10:06:31;;;;;;;2.20;1.20;;;22.10;67.90;;;;;;5052284;28;20289;-67
2021/08/04 10:08:57;;;;;;;2.55;1.30;;;22.00;67.90;;;;;;5051723;28;20486;-68
2021/08/04 10:11:26;;;;;;;2.60;1.23;;;22.10;68.10;;;;;;5052497;28;20029;-68
2021/08/04 10:13:55;;;;;;;3.47;1.50;;;22.10;68.40;;;;;;5052464;28;20028;-68
2021/08/04 10:16:22;;;;;;;3.20;1.50;;;22.10;67.70;;;;;;5067465;28;20064;-68
2021/08/04 10:18:49;;;;;;;2.28;1.27;;;22.00;67.70;;;;;;5051035;28;20053;-68
2021/08/04 10:21:15;;;;;;;2.15;1.20;;;22.00;67.80;;;;;;5052356;28;20029;-68
2021/08/04 10:23:47;;;;;;;3.58;1.50;;;22.10;67.80;;;;;;5052351;28;20060;-68
2021/08/04 10:26:15;;;;;;;3.60;1.75;;;22.20;67.70;;;;;;5051956;28;20112;-68
2021/08/04 10:28:42;;;;;;;2.53;1.30;;;22.10;67.20;;;;;;5052213;28;20501;-67
2021/08/04 10:31:09;;;;;;;2.85;1.58;;;22.10;67.50;;;;;;5051022;28;20020;-68
2021/08/04 10:33:37;;;;;;;2.72;1.35;;;22.10;67.60;;;;;;5050254;28;20025;-68
2021/08/04 10:36:07;;;;;;;2.83;1.40;;;22.10;67.60;;;;;;5049755;28;20036;-68
2021/08/04 10:38:35;;;;;;;3.00;1.23;;;22.00;67.50;;;;;;5050310;28;20025;-68
2021/08/04 10:41:37;;;;;;;3.05;1.50;;;22.20;67.60;;;;;;5051960;28;20438;-67
2021/08/04 10:44:05;;;;;;;2.03;1.20;;;22.10;67.50;;;;;;4954718;28;20121;-67
2021/08/04 10:46:31;;;;;;;3.60;1.30;;;22.10;67.50;;;;;;5036721;28;20037;-68
2021/08/04 10:49:03;;;;;;;1.95;1.17;;;22.10;67.70;;;;;;5050605;28;20120;-68
2021/08/04 10:51:29;;;;;;;3.60;1.27;;;22.10;67.70;;;;;;5050451;28;20078;-68
2021/08/04 10:54:01;;;;;;;2.55;1.20;;;22.10;68.20;;;;;;5051211;28;20107;-68
2021/08/04 10:56:48;;;;;;;2.97;1.20;;;22.10;67.60;;;;;;5051742;28;20029;-68
2021/08/04 10:59:13;;;;;;;1.95;1.20;;;22.10;67.60;;;;;;5050449;28;20025;-68
2021/08/04 11:01:49;;;;;;;2.20;1.17;;;22.10;67.40;;;;;;5051746;28;20506;-68
2021/08/04 11:04:44;;;;;;;2.13;1.20;;;22.10;67.30;;;;;;5051509;28;20103;-64
2021/08/04 11:07:17;;;;;;;3.15;1.30;;;22.10;67.40;;;;;;5051522;28;20107;-68
2021/08/04 11:09:48;;;;;;;2.78;1.27;;;22.10;67.60;;;;;;5050392;28;20394;-68
2021/08/04 11:12:26;;;;;;;3.50;1.30;;;22.10;67.30;;;;;;5050237;28;20539;-68
2021/08/04 11:14:58;;;;;;;1.55;1.10;;;22.20;67.30;;;;;;5051286;28;20048;-68
2021/08/04 11:17:31;;;;;;;1.83;1.15;;;22.20;67.30;;;;;;5051671;28;20032;-68
2021/08/04 11:20:01;;;;;;;1.90;1.20;;;22.10;67.30;;;;;;5051387;28;20398;-68
2021/08/04 11:22:41;;;;;;;2.60;1.08;;;22.10;67.40;;;;;;5055719;28;20094;-68
2021/08/04 11:25:10;;;;;;;1.98;1.30;;;22.10;67.30;;;;;;5055198;28;20017;-68
2021/08/04 11:27:43;;;;;;;2.15;1.10;;;22.10;67.40;;;;;;5055711;28;20024;-68
2021/08/04 11:30:12;;;;;;;3.20;1.27;;;22.10;67.50;;;;;;5055598;28;20032;-68
2021/08/04 11:32:38;;;;;;;2.83;1.30;;;22.10;67.40;;;;;;5055520;28;20567;-68
2021/08/04 11:35:30;;;;;;;3.20;1.40;;;22.20;67.30;;;;;;5054093;28;20064;-68
2021/08/04 11:37:55;;;;;;;2.45;1.17;;;22.20;67.30;;;;;;5051685;28;20059;-68
2021/08/04 11:40:23;;;;;;;3.40;1.35;;;22.20;67.10;;;;;;5055383;28;20367;-68
2021/08/04 11:42:56;;;;;;;2.80;1.30;;;22.20;67.00;;;;;;5055315;28;20032;-68
2021/08/04 11:45:22;;;;;;;2.85;1.13;;;22.20;67.10;;;;;;5053685;28;20029;-68
2021/08/04 11:47:49;;;;;;;2.00;1.17;;;22.20;67.10;;;;;;5055220;28;20013;-68
2021/08/04 11:50:15;;;;;;;2.10;1.20;;;22.20;67.00;;;;;;5055108;28;20457;-68
2021/08/04 11:52:41;;;;;;;3.53;1.40;;;22.20;67.10;;;;;;5053627;28;20032;-68
2021/08/04 11:55:11;;;;;;;4.60;1.65;;;22.20;67.10;;;;;;5053511;28;20028;-68
2021/08/04 11:57:41;;;;;;;2.20;1.15;;;22.20;67.00;;;;;;5055164;28;20020;-68
2021/08/04 12:00:10;;;;;;;2.88;1.33;;;22.20;66.90;;;;;;5054877;28;20092;-68
2021/08/04 12:02:37;;;;;;;2.53;1.20;;;22.20;66.90;;;;;;5054871;28;20025;-68
2021/08/04 12:05:05;;;;;;;2.25;1.25;;;22.20;67.10;;;;;;5053243;28;20075;-68
2021/08/04 12:07:33;;;;;;;2.25;1.20;;;22.20;67.10;;;;;;5054824;28;20056;-68
2021/08/04 12:10:06;;;;;;;4.25;1.50;;;22.20;67.00;;;;;;5054791;28;20028;-68
2021/08/04 12:12:35;;;;;;;2.03;1.30;;;22.20;66.90;;;;;;5054631;28;20040;-68
2021/08/04 12:15:04;;;;;;;1.85;1.10;;;22.20;66.90;;;;;;5053107;28;20029;-68
2021/08/04 12:17:32;;;;;;;1.95;1.30;;;22.20;67.00;;;;;;5054565;28;20022;-68
2021/08/04 12:20:08;;;;;;;2.38;1.30;;;22.30;67.00;;;;;;5054664;28;20021;-68
2021/08/04 12:22:34;;;;;;;2.15;1.25;;;22.30;66.90;;;;;;5054587;28;20494;-68
2021/08/04 12:25:03;;;;;;;2.00;1.30;;;22.30;66.80;;;;;;5054071;28;20029;-68
2021/08/04 12:27:34;;;;;;;3.38;1.20;;;22.30;66.80;;;;;;5053187;28;20376;-68
2021/08/04 12:30:17;;;;;;;2.28;1.23;;;22.30;66.90;;;;;;5054543;28;20021;-68
2021/08/04 12:33:08;;;;;;;2.65;1.30;;;22.30;66.90;;;;;;5053467;28;20074;-68
2021/08/04 12:35:47;;;;;;;2.67;1.35;;;22.20;67.20;;;;;;5054011;28;20096;-68
2021/08/04 12:38:18;;;;;;;2.40;1.38;;;22.20;67.20;;;;;;5054297;28;20112;-67
2021/08/04 12:40:52;;;;;;;2.30;1.30;;;22.10;67.30;;;;;;5052980;28;20029;-67
2021/08/04 12:43:19;;;;;;;3.88;1.40;;;22.10;67.30;;;;;;5052877;28;20558;-67
2021/08/04 12:45:55;;;;;;;2.55;1.30;;;22.10;67.40;;;;;;5053713;28;20029;-68
2021/08/04 12:48:33;;;;;;;2.05;1.20;;;22.10;67.40;;;;;;5054130;28;20079;-68
2021/08/04 12:50:59;;;;;;;1.92;1.30;;;22.10;67.40;;;;;;5052681;28;20051;-67
2021/08/04 12:53:32;;;;;;;2.58;1.40;;;22.10;67.60;;;;;;5052331;28;20025;-67